sensor_id;sensor_type;location;lat;lon;timestamp;P1;durP1;ratioP1;P2;durP2;ratioP2
46675;SDS011;32412;51.478;5.694;2022-11-25T00:01:15;15.82;;;3.03;;
46675;SDS011;32412;51.478;5.694;2022-11-25T00:03:43;15.95;;;3.80;;
46675;SDS011;32412;51.478;5.694;2022-11-25T00:06:13;16.33;;;3.33;;
46675;SDS011;32412;51.478;5.694;2022-11-25T00:08:43;13.90;;;3.20;;
46675;SDS011;32412;51.478;5.694;2022-11-25T00:11:11;13.55;;;4.00;;
46675;SDS011;32412;51.478;5.694;2022-11-25T00:13:38;12.88;;;3.30;;
46675;SDS011;32412;51.478;5.694;2022-11-25T00:16:06;13.40;;;3.53;;
46675;SDS011;32412;51.478;5.694;2022-11-25T00:18:33;17.90;;;3.67;;
46675;SDS011;32412;51.478;5.694;2022-11-25T00:21:03;14.35;;;3.60;;
46675;SDS011;32412;51.478;5.694;2022-11-25T00:23:31;17.08;;;3.08;;
46675;SDS011;32412;51.478;5.694;2022-11-25T00:25:57;15.75;;;3.10;;
46675;SDS011;32412;51.478;5.694;2022-11-25T00:28:22;24.27;;;3.08;;
46675;SDS011;32412;51.478;5.694;2022-11-25T00:30:48;17.00;;;3.20;;
46675;SDS011;32412;51.478;5.694;2022-11-25T00:33:13;11.63;;;2.55;;
46675;SDS011;32412;51.478;5.694;2022-11-25T00:35:39;14.75;;;3.53;;
46675;SDS011;32412;51.478;5.694;2022-11-25T00:38:05;14.40;;;2.80;;
46675;SDS011;32412;51.478;5.694;2022-11-25T00:40:30;15.52;;;3.13;;
46675;SDS011;32412;51.478;5.694;2022-11-25T00:42:56;16.85;;;2.85;;
46675;SDS011;32412;51.478;5.694;2022-11-25T00:45:40;11.70;;;3.00;;
46675;SDS011;32412;51.478;5.694;2022-11-25T00:48:06;14.07;;;3.08;;
46675;SDS011;32412;51.478;5.694;2022-11-25T00:50:32;9.02;;;2.70;;
46675;SDS011;32412;51.478;5.694;2022-11-25T00:52:57;14.88;;;3.03;;
46675;SDS011;32412;51.478;5.694;2022-11-25T00:55:23;15.25;;;2.85;;
46675;SDS011;32412;51.478;5.694;2022-11-25T00:57:49;11.65;;;3.05;;
46675;SDS011;32412;51.478;5.694;2022-11-25T01:00:14;12.43;;;2.78;;
46675;SDS011;32412;51.478;5.694;2022-11-25T01:02:40;19.70;;;2.83;;
46675;SDS011;32412;51.478;5.694;2022-11-25T01:05:06;14.82;;;2.75;;
46675;SDS011;32412;51.478;5.694;2022-11-25T01:07:31;13.60;;;2.70;;
46675;SDS011;32412;51.478;5.694;2022-11-25T01:09:57;9.30;;;2.50;;
46675;SDS011;32412;51.478;5.694;2022-11-25T01:12:23;10.82;;;2.58;;
46675;SDS011;32412;51.478;5.694;2022-11-25T01:14:48;9.80;;;2.63;;
46675;SDS011;32412;51.478;5.694;2022-11-25T01:17:14;16.08;;;3.03;;
46675;SDS011;32412;51.478;5.694;2022-11-25T01:19:39;13.25;;;2.85;;
46675;SDS011;32412;51.478;5.694;2022-11-25T01:22:06;19.10;;;3.00;;
46675;SDS011;32412;51.478;5.694;2022-11-25T01:24:32;15.80;;;3.05;;
46675;SDS011;32412;51.478;5.694;2022-11-25T01:26:58;17.92;;;3.17;;
46675;SDS011;32412;51.478;5.694;2022-11-25T01:29:24;12.23;;;3.75;;
46675;SDS011;32412;51.478;5.694;2022-11-25T01:31:49;25.10;;;3.42;;
46675;SDS011;32412;51.478;5.694;2022-11-25T01:34:19;11.93;;;3.22;;
46675;SDS011;32412;51.478;5.694;2022-11-25T01:36:46;10.90;;;3.28;;
46675;SDS011;32412;51.478;5.694;2022-11-25T01:39:22;13.32;;;2.80;;
46675;SDS011;32412;51.478;5.694;2022-11-25T01:41:48;12.25;;;3.08;;
46675;SDS011;32412;51.478;5.694;2022-11-25T01:44:16;11.65;;;3.20;;
46675;SDS011;32412;51.478;5.694;2022-11-25T01:54:22;9.18;;;2.45;;
46675;SDS011;32412;51.478;5.694;2022-11-25T01:56:53;12.38;;;3.05;;
46675;SDS011;32412;51.478;5.694;2022-11-25T01:59:23;13.75;;;2.58;;
46675;SDS011;32412;51.478;5.694;2022-11-25T02:01:49;9.85;;;2.47;;
46675;SDS011;32412;51.478;5.694;2022-11-25T02:04:15;9.50;;;2.10;;
46675;SDS011;32412;51.478;5.694;2022-11-25T02:06:45;12.02;;;3.30;;
46675;SDS011;32412;51.478;5.694;2022-11-25T02:09:16;10.65;;;2.22;;
46675;SDS011;32412;51.478;5.694;2022-11-25T02:11:43;12.52;;;2.30;;
46675;SDS011;32412;51.478;5.694;2022-11-25T02:14:11;15.20;;;2.13;;
46675;SDS011;32412;51.478;5.694;2022-11-25T02:16:39;12.98;;;2.53;;
46675;SDS011;32412;51.478;5.694;2022-11-25T02:19:06;14.95;;;2.10;;
46675;SDS011;32412;51.478;5.694;2022-11-25T02:21:45;10.75;;;1.92;;
46675;SDS011;32412;51.478;5.694;2022-11-25T02:24:17;14.10;;;2.25;;
46675;SDS011;32412;51.478;5.694;2022-11-25T02:26:45;9.73;;;1.70;;
46675;SDS011;32412;51.478;5.694;2022-11-25T02:29:11;13.15;;;2.53;;
46675;SDS011;32412;51.478;5.694;2022-11-25T02:31:37;9.07;;;1.77;;
46675;SDS011;32412;51.478;5.694;2022-11-25T02:34:02;12.88;;;2.03;;
46675;SDS011;32412;51.478;5.694;2022-11-25T02:36:28;12.00;;;1.73;;
46675;SDS011;32412;51.478;5.694;2022-11-25T02:38:54;9.48;;;2.22;;
46675;SDS011;32412;51.478;5.694;2022-11-25T02:41:24;10.40;;;2.15;;
46675;SDS011;32412;51.478;5.694;2022-11-25T02:43:53;7.97;;;2.20;;
46675;SDS011;32412;51.478;5.694;2022-11-25T02:46:20;14.32;;;2.20;;
46675;SDS011;32412;51.478;5.694;2022-11-25T02:48:48;14.05;;;2.25;;
46675;SDS011;32412;51.478;5.694;2022-11-25T02:51:16;8.45;;;1.98;;
46675;SDS011;32412;51.478;5.694;2022-11-25T02:53:43;8.55;;;1.73;;
46675;SDS011;32412;51.478;5.694;2022-11-25T02:56:10;16.40;;;2.22;;
46675;SDS011;32412;51.478;5.694;2022-11-25T02:58:36;12.23;;;1.77;;
46675;SDS011;32412;51.478;5.694;2022-11-25T03:01:02;12.13;;;2.00;;
46675;SDS011;32412;51.478;5.694;2022-11-25T03:03:28;8.68;;;1.58;;
46675;SDS011;32412;51.478;5.694;2022-11-25T03:05:54;10.55;;;1.98;;
46675;SDS011;32412;51.478;5.694;2022-11-25T03:08:19;10.05;;;1.50;;
46675;SDS011;32412;51.478;5.694;2022-11-25T03:10:45;10.80;;;2.03;;
46675;SDS011;32412;51.478;5.694;2022-11-25T03:13:11;9.63;;;1.98;;
46675;SDS011;32412;51.478;5.694;2022-11-25T03:15:37;9.13;;;1.40;;
46675;SDS011;32412;51.478;5.694;2022-11-25T03:18:03;5.32;;;1.38;;
46675;SDS011;32412;51.478;5.694;2022-11-25T03:20:29;9.98;;;1.67;;
46675;SDS011;32412;51.478;5.694;2022-11-25T03:22:55;9.30;;;1.55;;
46675;SDS011;32412;51.478;5.694;2022-11-25T03:25:21;8.70;;;1.67;;
46675;SDS011;32412;51.478;5.694;2022-11-25T03:27:47;8.75;;;1.52;;
46675;SDS011;32412;51.478;5.694;2022-11-25T03:30:20;10.35;;;2.03;;
46675;SDS011;32412;51.478;5.694;2022-11-25T03:32:47;11.77;;;1.75;;
46675;SDS011;32412;51.478;5.694;2022-11-25T03:35:13;10.52;;;1.95;;
46675;SDS011;32412;51.478;5.694;2022-11-25T03:37:39;11.75;;;1.75;;
46675;SDS011;32412;51.478;5.694;2022-11-25T03:40:05;9.88;;;1.73;;
46675;SDS011;32412;51.478;5.694;2022-11-25T03:42:33;6.55;;;1.88;;
46675;SDS011;32412;51.478;5.694;2022-11-25T03:44:59;8.15;;;1.85;;
46675;SDS011;32412;51.478;5.694;2022-11-25T03:47:25;7.10;;;1.48;;
46675;SDS011;32412;51.478;5.694;2022-11-25T03:49:51;7.00;;;1.30;;
46675;SDS011;32412;51.478;5.694;2022-11-25T03:52:17;6.88;;;1.63;;
46675;SDS011;32412;51.478;5.694;2022-11-25T03:54:42;7.35;;;1.30;;
46675;SDS011;32412;51.478;5.694;2022-11-25T03:57:08;7.70;;;1.67;;
46675;SDS011;32412;51.478;5.694;2022-11-25T03:59:34;7.07;;;1.65;;
46675;SDS011;32412;51.478;5.694;2022-11-25T04:02:00;10.88;;;2.45;;
46675;SDS011;32412;51.478;5.694;2022-11-25T04:04:26;10.77;;;2.17;;
46675;SDS011;32412;51.478;5.694;2022-11-25T04:06:51;7.55;;;1.75;;
46675;SDS011;32412;51.478;5.694;2022-11-25T04:09:17;9.90;;;2.00;;
46675;SDS011;32412;51.478;5.694;2022-11-25T04:11:43;11.43;;;1.85;;
46675;SDS011;32412;51.478;5.694;2022-11-25T04:16:53;7.15;;;1.50;;
46675;SDS011;32412;51.478;5.694;2022-11-25T04:19:19;8.18;;;1.65;;
46675;SDS011;32412;51.478;5.694;2022-11-25T04:21:44;6.50;;;1.67;;
46675;SDS011;32412;51.478;5.694;2022-11-25T04:24:10;8.32;;;2.10;;
46675;SDS011;32412;51.478;5.694;2022-11-25T04:26:36;6.93;;;1.65;;
46675;SDS011;32412;51.478;5.694;2022-11-25T04:29:01;8.02;;;1.58;;
46675;SDS011;32412;51.478;5.694;2022-11-25T04:31:27;11.82;;;1.80;;
46675;SDS011;32412;51.478;5.694;2022-11-25T04:33:53;11.60;;;2.78;;
46675;SDS011;32412;51.478;5.694;2022-11-25T04:36:19;11.30;;;2.33;;
46675;SDS011;32412;51.478;5.694;2022-11-25T04:38:44;8.27;;;1.73;;
46675;SDS011;32412;51.478;5.694;2022-11-25T04:41:10;10.20;;;2.17;;
46675;SDS011;32412;51.478;5.694;2022-11-25T04:43:36;12.60;;;2.45;;
46675;SDS011;32412;51.478;5.694;2022-11-25T04:46:01;13.02;;;2.60;;
46675;SDS011;32412;51.478;5.694;2022-11-25T04:48:27;17.15;;;2.25;;
46675;SDS011;32412;51.478;5.694;2022-11-25T04:50:53;11.15;;;2.10;;
46675;SDS011;32412;51.478;5.694;2022-11-25T04:53:19;10.27;;;2.00;;
46675;SDS011;32412;51.478;5.694;2022-11-25T04:55:45;12.52;;;1.90;;
46675;SDS011;32412;51.478;5.694;2022-11-25T04:58:11;12.35;;;2.13;;
46675;SDS011;32412;51.478;5.694;2022-11-25T05:00:37;8.35;;;1.90;;
46675;SDS011;32412;51.478;5.694;2022-11-25T05:03:03;11.70;;;1.90;;
46675;SDS011;32412;51.478;5.694;2022-11-25T05:05:28;14.32;;;2.38;;
46675;SDS011;32412;51.478;5.694;2022-11-25T05:07:54;10.75;;;1.90;;
46675;SDS011;32412;51.478;5.694;2022-11-25T05:10:21;8.40;;;1.83;;
46675;SDS011;32412;51.478;5.694;2022-11-25T05:12:46;9.65;;;2.00;;
46675;SDS011;32412;51.478;5.694;2022-11-25T05:15:12;5.45;;;1.30;;
46675;SDS011;32412;51.478;5.694;2022-11-25T05:17:38;4.30;;;1.35;;
46675;SDS011;32412;51.478;5.694;2022-11-25T05:20:04;7.63;;;1.63;;
46675;SDS011;32412;51.478;5.694;2022-11-25T05:22:31;7.18;;;1.50;;
46675;SDS011;32412;51.478;5.694;2022-11-25T05:24:57;8.57;;;1.50;;
46675;SDS011;32412;51.478;5.694;2022-11-25T05:27:23;7.85;;;1.50;;
46675;SDS011;32412;51.478;5.694;2022-11-25T05:29:49;10.23;;;1.52;;
46675;SDS011;32412;51.478;5.694;2022-11-25T05:32:15;7.18;;;1.40;;
46675;SDS011;32412;51.478;5.694;2022-11-25T05:34:41;6.03;;;1.73;;
46675;SDS011;32412;51.478;5.694;2022-11-25T05:37:07;10.30;;;1.83;;
46675;SDS011;32412;51.478;5.694;2022-11-25T05:39:34;8.60;;;1.75;;
46675;SDS011;32412;51.478;5.694;2022-11-25T05:42:00;11.52;;;1.70;;
46675;SDS011;32412;51.478;5.694;2022-11-25T05:44:25;4.05;;;1.70;;
46675;SDS011;32412;51.478;5.694;2022-11-25T05:46:51;8.27;;;1.33;;
46675;SDS011;32412;51.478;5.694;2022-11-25T05:49:17;5.57;;;1.63;;
46675;SDS011;32412;51.478;5.694;2022-11-25T05:51:43;5.68;;;1.42;;
46675;SDS011;32412;51.478;5.694;2022-11-25T05:54:09;8.20;;;1.52;;
46675;SDS011;32412;51.478;5.694;2022-11-25T05:56:35;7.22;;;1.30;;
46675;SDS011;32412;51.478;5.694;2022-11-25T05:59:01;5.40;;;1.15;;
46675;SDS011;32412;51.478;5.694;2022-11-25T06:01:27;7.28;;;1.60;;
46675;SDS011;32412;51.478;5.694;2022-11-25T06:03:53;8.75;;;1.70;;
46675;SDS011;32412;51.478;5.694;2022-11-25T06:06:19;10.82;;;1.90;;
46675;SDS011;32412;51.478;5.694;2022-11-25T06:08:45;9.68;;;1.50;;
46675;SDS011;32412;51.478;5.694;2022-11-25T06:11:13;6.07;;;1.50;;
46675;SDS011;32412;51.478;5.694;2022-11-25T06:13:40;6.90;;;1.85;;
46675;SDS011;32412;51.478;5.694;2022-11-25T06:16:08;8.73;;;1.50;;
46675;SDS011;32412;51.478;5.694;2022-11-25T06:18:43;7.22;;;2.00;;
46675;SDS011;32412;51.478;5.694;2022-11-25T06:21:09;9.57;;;2.05;;
46675;SDS011;32412;51.478;5.694;2022-11-25T06:23:35;7.80;;;1.80;;
46675;SDS011;32412;51.478;5.694;2022-11-25T06:26:03;8.73;;;1.45;;
46675;SDS011;32412;51.478;5.694;2022-11-25T06:28:29;10.80;;;1.70;;
46675;SDS011;32412;51.478;5.694;2022-11-25T06:30:54;9.27;;;1.77;;
46675;SDS011;32412;51.478;5.694;2022-11-25T06:33:20;9.70;;;1.98;;
46675;SDS011;32412;51.478;5.694;2022-11-25T06:35:46;6.45;;;2.97;;
46675;SDS011;32412;51.478;5.694;2022-11-25T06:38:11;9.25;;;1.55;;
46675;SDS011;32412;51.478;5.694;2022-11-25T06:40:37;9.43;;;1.98;;
46675;SDS011;32412;51.478;5.694;2022-11-25T06:43:03;10.52;;;2.30;;
46675;SDS011;32412;51.478;5.694;2022-11-25T06:45:29;6.90;;;2.20;;
46675;SDS011;32412;51.478;5.694;2022-11-25T06:47:55;5.47;;;1.60;;
46675;SDS011;32412;51.478;5.694;2022-11-25T06:50:21;4.80;;;1.58;;
46675;SDS011;32412;51.478;5.694;2022-11-25T06:52:47;11.02;;;2.10;;
46675;SDS011;32412;51.478;5.694;2022-11-25T06:55:12;8.45;;;2.47;;
46675;SDS011;32412;51.478;5.694;2022-11-25T06:57:38;9.18;;;1.77;;
46675;SDS011;32412;51.478;5.694;2022-11-25T07:00:04;7.25;;;1.73;;
46675;SDS011;32412;51.478;5.694;2022-11-25T07:02:30;10.90;;;2.10;;
46675;SDS011;32412;51.478;5.694;2022-11-25T07:04:56;4.78;;;1.90;;
46675;SDS011;32412;51.478;5.694;2022-11-25T07:07:22;5.57;;;2.03;;
46675;SDS011;32412;51.478;5.694;2022-11-25T07:09:47;10.52;;;2.38;;
46675;SDS011;32412;51.478;5.694;2022-11-25T07:12:13;7.22;;;2.30;;
46675;SDS011;32412;51.478;5.694;2022-11-25T07:14:38;12.40;;;2.33;;
46675;SDS011;32412;51.478;5.694;2022-11-25T07:17:04;10.20;;;2.45;;
46675;SDS011;32412;51.478;5.694;2022-11-25T07:19:30;10.70;;;2.38;;
46675;SDS011;32412;51.478;5.694;2022-11-25T07:21:57;11.57;;;2.72;;
46675;SDS011;32412;51.478;5.694;2022-11-25T07:24:23;11.07;;;2.58;;
46675;SDS011;32412;51.478;5.694;2022-11-25T07:26:49;11.48;;;3.15;;
46675;SDS011;32412;51.478;5.694;2022-11-25T07:29:15;9.93;;;2.90;;
46675;SDS011;32412;51.478;5.694;2022-11-25T07:31:42;14.57;;;2.97;;
46675;SDS011;32412;51.478;5.694;2022-11-25T07:34:12;8.45;;;2.53;;
46675;SDS011;32412;51.478;5.694;2022-11-25T07:36:41;19.95;;;3.47;;
46675;SDS011;32412;51.478;5.694;2022-11-25T07:39:09;11.30;;;2.90;;
46675;SDS011;32412;51.478;5.694;2022-11-25T07:41:37;10.00;;;2.80;;
46675;SDS011;32412;51.478;5.694;2022-11-25T07:44:04;14.05;;;2.92;;
46675;SDS011;32412;51.478;5.694;2022-11-25T07:46:32;14.60;;;3.20;;
46675;SDS011;32412;51.478;5.694;2022-11-25T07:49:03;10.68;;;3.15;;
46675;SDS011;32412;51.478;5.694;2022-11-25T07:51:32;12.63;;;3.95;;
46675;SDS011;32412;51.478;5.694;2022-11-25T07:54:02;13.13;;;3.10;;
46675;SDS011;32412;51.478;5.694;2022-11-25T07:56:30;15.60;;;3.08;;
46675;SDS011;32412;51.478;5.694;2022-11-25T07:58:58;11.82;;;3.45;;
46675;SDS011;32412;51.478;5.694;2022-11-25T08:01:24;12.68;;;3.30;;
46675;SDS011;32412;51.478;5.694;2022-11-25T08:03:49;15.57;;;4.00;;
46675;SDS011;32412;51.478;5.694;2022-11-25T08:06:16;8.63;;;3.33;;
46675;SDS011;32412;51.478;5.694;2022-11-25T08:08:44;15.35;;;3.33;;
46675;SDS011;32412;51.478;5.694;2022-11-25T08:11:11;8.77;;;3.17;;
46675;SDS011;32412;51.478;5.694;2022-11-25T08:13:39;10.40;;;3.33;;
46675;SDS011;32412;51.478;5.694;2022-11-25T08:16:05;14.90;;;3.20;;
46675;SDS011;32412;51.478;5.694;2022-11-25T08:18:32;10.98;;;3.47;;
46675;SDS011;32412;51.478;5.694;2022-11-25T08:20:58;10.40;;;3.28;;
46675;SDS011;32412;51.478;5.694;2022-11-25T08:23:29;9.95;;;2.95;;
46675;SDS011;32412;51.478;5.694;2022-11-25T08:26:05;14.82;;;3.40;;
46675;SDS011;32412;51.478;5.694;2022-11-25T08:28:33;9.20;;;2.80;;
46675;SDS011;32412;51.478;5.694;2022-11-25T08:31:00;10.10;;;3.25;;
46675;SDS011;32412;51.478;5.694;2022-11-25T08:33:27;9.65;;;3.25;;
46675;SDS011;32412;51.478;5.694;2022-11-25T08:35:53;9.85;;;3.50;;
46675;SDS011;32412;51.478;5.694;2022-11-25T08:38:19;13.70;;;3.92;;
46675;SDS011;32412;51.478;5.694;2022-11-25T08:40:45;13.00;;;3.15;;
46675;SDS011;32412;51.478;5.694;2022-11-25T08:43:11;14.25;;;3.40;;
46675;SDS011;32412;51.478;5.694;2022-11-25T08:45:37;11.82;;;3.38;;
46675;SDS011;32412;51.478;5.694;2022-11-25T08:48:04;8.88;;;3.15;;
46675;SDS011;32412;51.478;5.694;2022-11-25T08:50:31;10.60;;;3.38;;
46675;SDS011;32412;51.478;5.694;2022-11-25T08:52:56;9.63;;;3.40;;
46675;SDS011;32412;51.478;5.694;2022-11-25T08:55:23;10.23;;;3.30;;
46675;SDS011;32412;51.478;5.694;2022-11-25T08:57:51;9.38;;;3.40;;
46675;SDS011;32412;51.478;5.694;2022-11-25T09:00:20;11.45;;;3.63;;
46675;SDS011;32412;51.478;5.694;2022-11-25T09:02:46;9.77;;;3.20;;
46675;SDS011;32412;51.478;5.694;2022-11-25T09:05:13;11.82;;;3.78;;
46675;SDS011;32412;51.478;5.694;2022-11-25T09:07:40;13.73;;;3.53;;
46675;SDS011;32412;51.478;5.694;2022-11-25T09:10:07;12.18;;;3.17;;
46675;SDS011;32412;51.478;5.694;2022-11-25T09:12:38;14.40;;;3.58;;
46675;SDS011;32412;51.478;5.694;2022-11-25T09:15:03;11.80;;;3.40;;
46675;SDS011;32412;51.478;5.694;2022-11-25T09:17:29;15.70;;;3.90;;
46675;SDS011;32412;51.478;5.694;2022-11-25T09:19:55;11.68;;;3.83;;
46675;SDS011;32412;51.478;5.694;2022-11-25T09:22:21;9.45;;;3.40;;
46675;SDS011;32412;51.478;5.694;2022-11-25T09:24:47;12.10;;;3.42;;
46675;SDS011;32412;51.478;5.694;2022-11-25T09:27:12;9.80;;;3.30;;
46675;SDS011;32412;51.478;5.694;2022-11-25T09:29:38;8.93;;;2.92;;
46675;SDS011;32412;51.478;5.694;2022-11-25T09:32:04;11.55;;;3.33;;
46675;SDS011;32412;51.478;5.694;2022-11-25T09:34:29;13.55;;;3.15;;
46675;SDS011;32412;51.478;5.694;2022-11-25T09:36:55;11.63;;;2.80;;
46675;SDS011;32412;51.478;5.694;2022-11-25T09:39:20;9.05;;;2.67;;
46675;SDS011;32412;51.478;5.694;2022-11-25T09:50:32;10.00;;;2.70;;
46675;SDS011;32412;51.478;5.694;2022-11-25T09:55:47;10.98;;;3.60;;
46675;SDS011;32412;51.478;5.694;2022-11-25T10:01:16;7.65;;;2.00;;
46675;SDS011;32412;51.478;5.694;2022-11-25T10:06:35;5.43;;;2.03;;
46675;SDS011;32412;51.478;5.694;2022-11-25T10:09:10;12.27;;;2.45;;
46675;SDS011;32412;51.478;5.694;2022-11-25T10:11:52;8.90;;;2.35;;
46675;SDS011;32412;51.478;5.694;2022-11-25T10:14:49;7.53;;;2.15;;
46675;SDS011;32412;51.478;5.694;2022-11-25T10:22:27;11.13;;;2.80;;
46675;SDS011;32412;51.478;5.694;2022-11-25T10:25:04;8.95;;;2.47;;
46675;SDS011;32412;51.478;5.694;2022-11-25T10:27:56;5.72;;;1.65;;
46675;SDS011;32412;51.478;5.694;2022-11-25T10:30:35;8.07;;;1.90;;
46675;SDS011;32412;51.478;5.694;2022-11-25T10:44:25;7.50;;;2.10;;
46675;SDS011;32412;51.478;5.694;2022-11-25T10:50:10;8.18;;;2.03;;
46675;SDS011;32412;51.478;5.694;2022-11-25T10:52:54;11.48;;;4.50;;
46675;SDS011;32412;51.478;5.694;2022-11-25T10:55:29;5.00;;;1.80;;
46675;SDS011;32412;51.478;5.694;2022-11-25T10:57:56;5.50;;;1.70;;
46675;SDS011;32412;51.478;5.694;2022-11-25T11:00:36;4.72;;;1.67;;
46675;SDS011;32412;51.478;5.694;2022-11-25T11:03:18;7.18;;;1.52;;
46675;SDS011;32412;51.478;5.694;2022-11-25T11:05:51;8.40;;;1.67;;
46675;SDS011;32412;51.478;5.694;2022-11-25T11:08:27;9.05;;;1.80;;
46675;SDS011;32412;51.478;5.694;2022-11-25T11:11:08;8.85;;;1.70;;
46675;SDS011;32412;51.478;5.694;2022-11-25T11:13:35;5.88;;;1.92;;
46675;SDS011;32412;51.478;5.694;2022-11-25T11:16:01;9.20;;;2.00;;
46675;SDS011;32412;51.478;5.694;2022-11-25T11:21:04;5.35;;;1.65;;
46675;SDS011;32412;51.478;5.694;2022-11-25T11:23:31;5.22;;;1.38;;
46675;SDS011;32412;51.478;5.694;2022-11-25T11:26:25;6.97;;;1.45;;
46675;SDS011;32412;51.478;5.694;2022-11-25T11:29:27;5.00;;;1.55;;
46675;SDS011;32412;51.478;5.694;2022-11-25T11:31:47;9.05;;;1.92;;
46675;SDS011;32412;51.478;5.694;2022-11-25T11:51:44;10.27;;;1.80;;
46675;SDS011;32412;51.478;5.694;2022-11-25T11:57:05;8.68;;;2.17;;
46675;SDS011;32412;51.478;5.694;2022-11-25T12:05:14;6.13;;;1.85;;
46675;SDS011;32412;51.478;5.694;2022-11-25T12:10:33;8.95;;;1.45;;
46675;SDS011;32412;51.478;5.694;2022-11-25T12:16:38;7.70;;;1.58;;
46675;SDS011;32412;51.478;5.694;2022-11-25T12:19:14;5.97;;;1.42;;
46675;SDS011;32412;51.478;5.694;2022-11-25T12:27:32;6.13;;;1.42;;
46675;SDS011;32412;51.478;5.694;2022-11-25T12:37:45;7.18;;;1.70;;
46675;SDS011;32412;51.478;5.694;2022-11-25T12:40:40;6.15;;;1.33;;
46675;SDS011;32412;51.478;5.694;2022-11-25T12:48:42;7.40;;;1.55;;
46675;SDS011;32412;51.478;5.694;2022-11-25T12:56:20;10.27;;;2.15;;
46675;SDS011;32412;51.478;5.694;2022-11-25T13:02:12;10.40;;;1.80;;
46675;SDS011;32412;51.478;5.694;2022-11-25T13:13:47;9.93;;;2.15;;
46675;SDS011;32412;51.478;5.694;2022-11-25T13:16:32;11.18;;;4.03;;
46675;SDS011;32412;51.478;5.694;2022-11-25T13:18:58;14.27;;;4.10;;
46675;SDS011;32412;51.478;5.694;2022-11-25T13:21:23;10.30;;;2.08;;
46675;SDS011;32412;51.478;5.694;2022-11-25T13:29:00;9.13;;;2.00;;
46675;SDS011;32412;51.478;5.694;2022-11-25T13:34:35;9.27;;;2.20;;
46675;SDS011;32412;51.478;5.694;2022-11-25T13:40:40;13.30;;;3.53;;
46675;SDS011;32412;51.478;5.694;2022-11-25T13:42:43;11.75;;;3.42;;
46675;SDS011;32412;51.478;5.694;2022-11-25T13:45:19;12.07;;;4.90;;
46675;SDS011;32412;51.478;5.694;2022-11-25T13:47:54;10.63;;;2.72;;
46675;SDS011;32412;51.478;5.694;2022-11-25T13:50:36;9.10;;;2.70;;
46675;SDS011;32412;51.478;5.694;2022-11-25T13:53:07;10.20;;;3.22;;
46675;SDS011;32412;51.478;5.694;2022-11-25T13:55:45;9.02;;;3.00;;
46675;SDS011;32412;51.478;5.694;2022-11-25T14:05:54;14.35;;;3.70;;
46675;SDS011;32412;51.478;5.694;2022-11-25T14:14:12;22.65;;;3.72;;
46675;SDS011;32412;51.478;5.694;2022-11-25T14:16:58;14.32;;;4.38;;
46675;SDS011;32412;51.478;5.694;2022-11-25T14:28:03;11.82;;;2.50;;
46675;SDS011;32412;51.478;5.694;2022-11-25T14:30:35;11.73;;;2.60;;
46675;SDS011;32412;51.478;5.694;2022-11-25T14:33:10;9.75;;;3.03;;
46675;SDS011;32412;51.478;5.694;2022-11-25T14:35:42;13.07;;;3.50;;
46675;SDS011;32412;51.478;5.694;2022-11-25T14:38:14;10.10;;;3.13;;
46675;SDS011;32412;51.478;5.694;2022-11-25T14:40:50;8.73;;;3.65;;
46675;SDS011;32412;51.478;5.694;2022-11-25T14:43:19;18.02;;;4.20;;
46675;SDS011;32412;51.478;5.694;2022-11-25T14:45:47;14.35;;;4.63;;
46675;SDS011;32412;51.478;5.694;2022-11-25T14:48:51;14.80;;;4.88;;
46675;SDS011;32412;51.478;5.694;2022-11-25T14:53:46;14.57;;;3.55;;
46675;SDS011;32412;51.478;5.694;2022-11-25T14:56:13;11.88;;;4.43;;
46675;SDS011;32412;51.478;5.694;2022-11-25T14:58:45;12.52;;;4.15;;
46675;SDS011;32412;51.478;5.694;2022-11-25T15:01:17;17.60;;;3.88;;
46675;SDS011;32412;51.478;5.694;2022-11-25T15:03:48;20.00;;;5.00;;
46675;SDS011;32412;51.478;5.694;2022-11-25T15:06:16;12.20;;;4.75;;
46675;SDS011;32412;51.478;5.694;2022-11-25T15:08:52;11.38;;;3.85;;
46675;SDS011;32412;51.478;5.694;2022-11-25T15:11:22;20.98;;;4.43;;
46675;SDS011;32412;51.478;5.694;2022-11-25T15:16:20;13.30;;;4.45;;
46675;SDS011;32412;51.478;5.694;2022-11-25T15:18:55;15.68;;;4.70;;
46675;SDS011;32412;51.478;5.694;2022-11-25T15:21:33;18.27;;;5.63;;
46675;SDS011;32412;51.478;5.694;2022-11-25T15:24:01;11.07;;;4.38;;
46675;SDS011;32412;51.478;5.694;2022-11-25T15:26:29;15.82;;;4.80;;
46675;SDS011;32412;51.478;5.694;2022-11-25T15:28:57;11.73;;;3.70;;
46675;SDS011;32412;51.478;5.694;2022-11-25T15:31:34;8.85;;;3.53;;
46675;SDS011;32412;51.478;5.694;2022-11-25T15:34:10;13.95;;;4.50;;
46675;SDS011;32412;51.478;5.694;2022-11-25T15:36:37;13.55;;;4.43;;
46675;SDS011;32412;51.478;5.694;2022-11-25T15:41:44;10.82;;;3.85;;
46675;SDS011;32412;51.478;5.694;2022-11-25T15:44:23;14.18;;;4.03;;
46675;SDS011;32412;51.478;5.694;2022-11-25T15:46:52;15.30;;;5.93;;
46675;SDS011;32412;51.478;5.694;2022-11-25T15:49:24;17.80;;;5.63;;
46675;SDS011;32412;51.478;5.694;2022-11-25T15:51:51;15.23;;;5.28;;
46675;SDS011;32412;51.478;5.694;2022-11-25T15:54:26;17.88;;;6.38;;
46675;SDS011;32412;51.478;5.694;2022-11-25T15:56:59;14.68;;;3.90;;
46675;SDS011;32412;51.478;5.694;2022-11-25T16:10:22;18.55;;;4.72;;
46675;SDS011;32412;51.478;5.694;2022-11-25T16:29:19;18.33;;;3.90;;
46675;SDS011;32412;51.478;5.694;2022-11-25T16:31:49;16.13;;;4.90;;
46675;SDS011;32412;51.478;5.694;2022-11-25T16:34:16;13.35;;;3.55;;
46675;SDS011;32412;51.478;5.694;2022-11-25T16:36:44;15.45;;;5.18;;
46675;SDS011;32412;51.478;5.694;2022-11-25T16:39:09;16.35;;;4.55;;
46675;SDS011;32412;51.478;5.694;2022-11-25T16:41:36;17.35;;;4.40;;
46675;SDS011;32412;51.478;5.694;2022-11-25T16:44:15;15.82;;;3.97;;
46675;SDS011;32412;51.478;5.694;2022-11-25T16:46:43;13.43;;;4.20;;
46675;SDS011;32412;51.478;5.694;2022-11-25T16:49:12;16.10;;;4.22;;
46675;SDS011;32412;51.478;5.694;2022-11-25T16:51:39;18.45;;;4.78;;
46675;SDS011;32412;51.478;5.694;2022-11-25T16:54:05;14.15;;;4.40;;
46675;SDS011;32412;51.478;5.694;2022-11-25T16:56:30;17.52;;;5.65;;
46675;SDS011;32412;51.478;5.694;2022-11-25T16:58:58;19.88;;;5.22;;
46675;SDS011;32412;51.478;5.694;2022-11-25T17:01:25;17.05;;;7.22;;
46675;SDS011;32412;51.478;5.694;2022-11-25T17:03:52;14.82;;;5.20;;
46675;SDS011;32412;51.478;5.694;2022-11-25T17:06:19;17.33;;;5.57;;
46675;SDS011;32412;51.478;5.694;2022-11-25T17:08:46;19.88;;;7.70;;
46675;SDS011;32412;51.478;5.694;2022-11-25T17:16:24;18.77;;;7.68;;
46675;SDS011;32412;51.478;5.694;2022-11-25T17:18:52;18.52;;;5.93;;
46675;SDS011;32412;51.478;5.694;2022-11-25T17:21:19;18.25;;;6.40;;
46675;SDS011;32412;51.478;5.694;2022-11-25T17:23:50;17.83;;;6.25;;
46675;SDS011;32412;51.478;5.694;2022-11-25T17:26:17;20.60;;;6.13;;
46675;SDS011;32412;51.478;5.694;2022-11-25T17:29:09;17.48;;;6.20;;
46675;SDS011;32412;51.478;5.694;2022-11-25T17:31:41;19.52;;;7.10;;
46675;SDS011;32412;51.478;5.694;2022-11-25T17:34:14;20.40;;;5.57;;
46675;SDS011;32412;51.478;5.694;2022-11-25T17:36:41;20.63;;;8.13;;
46675;SDS011;32412;51.478;5.694;2022-11-25T17:39:11;18.73;;;6.78;;
46675;SDS011;32412;51.478;5.694;2022-11-25T17:41:39;21.73;;;7.43;;
46675;SDS011;32412;51.478;5.694;2022-11-25T17:44:11;15.25;;;6.95;;
46675;SDS011;32412;51.478;5.694;2022-11-25T17:46:44;18.35;;;6.10;;
46675;SDS011;32412;51.478;5.694;2022-11-25T17:49:13;18.48;;;6.10;;
46675;SDS011;32412;51.478;5.694;2022-11-25T17:51:39;22.60;;;7.63;;
46675;SDS011;32412;51.478;5.694;2022-11-25T17:54:06;17.98;;;6.97;;
46675;SDS011;32412;51.478;5.694;2022-11-25T17:56:32;24.73;;;7.50;;
46675;SDS011;32412;51.478;5.694;2022-11-25T17:58:59;26.33;;;8.13;;
46675;SDS011;32412;51.478;5.694;2022-11-25T18:01:30;27.17;;;10.35;;